Jaipur, India

11:44 AM IST on August 22, 2014 (GMT +0530)
Jaipur | Change Station
CLOSE
Current Station
Airport
Location: Jaipur,
Elevation: 1280 ft
Nearby Weather Stations

Elev 1280 ft 26.82 °N, 75.81 °E | Updated 44 minutes ago

Haze
Haze
90 °F
Feels Like 96 °F
N
8
Wind Variable Wind from WSW

Today
High -- | Low -- °F
--% Chance of Precip.
Yesterday
High -- | Low -- °F
Precip. -- in
6:01 AM 6:57 PM
Waning Crescent, 10% visible
Pressure 29.77 in
Visibility 2.5 miles
Clouds Few 10000 ft
Heat Index 96 °F
Dew Point 72 °F
Humidity 55%
Rainfall 0.00 in
Snow Depth Not available.
UV 14 out of 12
Pollen Not available.
Air Quality Not available.
Flu Activity Not available.
METAR VIJP 220530Z 24007KT 4000 HZ FEW100 32/22 Q1008 NOSIG

More Conditions Fewer Conditions

Pressure 29.77 in
Visibility 2.5 miles
Clouds Few 10000 ft
Heat Index 96 °F
Dew Point 72 °F
Humidity 55%
Rainfall 0.00 in
Snow Depth Not available.
UV 14 out of 12
Pollen Not available.
Air Quality Not available.
Flu Activity Not available.
METAR VIJP 220530Z 24007KT 4000 HZ FEW100 32/22 Q1008 NOSIG

More Conditions Fewer Conditions

10-Day Weather Forecast

Almanac

Astronomy

Aug. 22, 2014 Rise Set
Actual Time 6:01 AM IST 6:57 PM IST
Civil Twilight 5:37 AM IST 7:21 PM IST
Nautical Twilight 5:09 AM IST 7:49 PM IST
Astronomical Twilight 4:40 AM IST 8:18 PM IST
Moon 3:07 AM IST 4:41 PM IST
Length of Visible Light 13h 43m
Length of Day
12h 55m
Tomorrow will be 1m 27s shorter.
Waning Crescent, 10% of the Moon is Illuminated
Today
Waning Crescent
Aug 25
New
Sep 2
First Quarter
Sep 8
Full
Sep 15
Last Quarter

Yesterday's Extremes

Country Highs Country Lows

Community

WunderPhotos

Upload Photos

1,746,131 photos uploaded!

Nearby

Snow Depth

Not available.

Earthquake Activity

City Distance Mag. Time & Date
No recent earthquake activity has been reported nearby.
Minimum magnitude displayed is 2.5.

Coastal Water Temperatures

Place Temperature
No Stations Reporting

Nearby Weather Stations